createdAt,value
2023-02-11T00:01:10.394Z,-3.83
2023-02-11T00:03:39.010Z,-3.87
2023-02-11T00:06:09.812Z,-3.64
2023-02-11T00:08:38.535Z,-3.50
2023-02-11T00:11:05.968Z,-3.67
2023-02-11T00:13:33.347Z,-3.48
2023-02-11T00:16:00.545Z,-3.52
2023-02-11T00:18:28.988Z,-3.37
2023-02-11T00:20:56.449Z,-3.42
2023-02-11T00:23:23.652Z,-3.42
2023-02-11T00:25:51.885Z,-3.36
2023-02-11T00:28:19.077Z,-3.18
2023-02-11T00:30:54.116Z,-3.46
2023-02-11T00:33:21.707Z,-3.72
2023-02-11T00:35:49.077Z,-3.79
2023-02-11T00:38:17.169Z,-3.72
2023-02-11T00:40:44.218Z,-3.85
2023-02-11T00:43:11.485Z,-3.93
2023-02-11T00:45:38.760Z,-3.96
2023-02-11T00:48:06.110Z,-3.63
2023-02-11T00:50:33.184Z,-3.70
2023-02-11T00:53:01.030Z,-3.64
2023-02-11T00:55:29.680Z,-3.67
2023-02-11T00:58:00.221Z,-3.55
2023-02-11T01:00:28.289Z,-3.54
2023-02-11T01:02:56.100Z,-3.31
2023-02-11T01:05:23.233Z,-3.30
2023-02-11T01:07:50.910Z,-3.23
2023-02-11T01:10:18.009Z,-3.42
2023-02-11T01:12:46.355Z,-3.51
2023-02-11T01:15:17.431Z,-3.64
2023-02-11T01:17:51.872Z,-3.66
2023-02-11T01:20:24.148Z,-3.54
2023-02-11T01:22:51.295Z,-3.77
2023-02-11T01:25:18.487Z,-3.89
2023-02-11T01:27:45.688Z,-4.15
2023-02-11T01:30:14.446Z,-3.99
2023-02-11T01:32:41.786Z,-4.16
2023-02-11T01:35:09.198Z,-4.09
2023-02-11T01:37:36.906Z,-4.41
2023-02-11T01:40:07.043Z,-4.48
2023-02-11T01:42:35.223Z,-4.64
2023-02-11T01:45:57.800Z,-4.50
2023-02-11T01:48:29.623Z,-4.47
2023-02-11T01:51:29.448Z,-4.30
2023-02-11T01:54:17.136Z,-4.25
2023-02-11T01:57:05.805Z,-3.91
2023-02-11T01:59:52.735Z,-3.89
2023-02-11T02:02:29.821Z,-3.88
2023-02-11T02:05:15.688Z,-3.92
2023-02-11T02:07:50.248Z,-4.12
2023-02-11T02:10:23.262Z,-4.11
2023-02-11T02:12:50.866Z,-4.17
2023-02-11T02:15:23.557Z,-4.12
2023-02-11T02:18:00.485Z,-4.27
2023-02-11T02:20:56.694Z,-4.21
2023-02-11T02:23:52.628Z,-4.35
2023-02-11T02:26:25.961Z,-4.44
2023-02-11T02:29:32.242Z,-4.48
2023-02-11T02:32:23.745Z,-4.40
2023-02-11T02:35:10.595Z,-4.57
2023-02-11T02:38:08.828Z,-4.68
2023-02-11T02:40:50.019Z,-4.58
2023-02-11T02:43:19.004Z,-4.56
2023-02-11T02:45:46.073Z,-4.66
2023-02-11T02:48:33.559Z,-4.72
2023-02-11T02:51:30.042Z,-4.83
2023-02-11T02:54:30.200Z,-4.89
2023-02-11T02:57:30.976Z,-4.61
2023-02-11T03:00:10.623Z,-4.69
2023-02-11T03:02:50.850Z,-4.72
2023-02-11T03:05:22.515Z,-4.65
2023-02-11T03:07:52.669Z,-4.72
2023-02-11T03:10:31.836Z,-4.77
2023-02-11T03:13:01.198Z,-4.76
2023-02-11T03:15:33.078Z,-4.72
2023-02-11T03:18:02.282Z,-4.63
2023-02-11T03:20:33.567Z,-4.78
2023-02-11T03:23:11.310Z,-4.70
2023-02-11T03:25:49.002Z,-4.85
2023-02-11T03:28:26.563Z,-4.86
2023-02-11T03:31:02.999Z,-4.88
2023-02-11T03:33:47.473Z,-4.90
2023-02-11T03:36:21.287Z,-4.93
2023-02-11T03:38:53.308Z,-4.90
2023-02-11T03:41:24.130Z,-4.90
2023-02-11T03:43:56.393Z,-5.05
2023-02-11T03:46:31.887Z,-5.10
2023-02-11T03:49:07.911Z,-5.09
2023-02-11T03:51:37.091Z,-5.12
2023-02-11T03:54:09.591Z,-5.17
2023-02-11T03:56:49.235Z,-5.32
2023-02-11T03:59:17.582Z,-5.30
2023-02-11T04:01:44.631Z,-5.35
2023-02-11T04:04:12.060Z,-5.41
2023-02-11T04:06:39.534Z,-5.42
2023-02-11T04:09:07.352Z,-5.51
2023-02-11T04:11:34.439Z,-5.34
2023-02-11T04:14:01.563Z,-5.30
2023-02-11T04:16:30.480Z,-5.41
2023-02-11T04:18:58.389Z,-5.34
2023-02-11T04:21:25.402Z,-5.40
2023-02-11T04:23:52.516Z,-5.42
2023-02-11T04:26:19.627Z,-5.44
2023-02-11T04:28:46.707Z,-5.62
2023-02-11T04:31:13.904Z,-5.58
2023-02-11T04:33:41.160Z,-5.65
2023-02-11T04:36:08.907Z,-5.69
2023-02-11T04:38:35.963Z,-5.63
2023-02-11T04:41:03.074Z,-5.73
2023-02-11T04:43:30.041Z,-5.68
2023-02-11T04:45:58.894Z,-5.79
2023-02-11T04:48:26.524Z,-5.75
2023-02-11T04:50:53.615Z,-5.64
2023-02-11T04:53:20.801Z,-5.97
2023-02-11T04:55:51.368Z,-5.97
2023-02-11T04:58:19.940Z,-5.76
2023-02-11T05:00:47.602Z,-5.68
2023-02-11T05:03:14.769Z,-5.82
2023-02-11T05:05:42.908Z,-5.84
2023-02-11T05:08:11.322Z,-5.66
2023-02-11T05:10:38.502Z,-5.61
2023-02-11T05:13:05.584Z,-5.60
2023-02-11T05:15:32.789Z,-5.89
2023-02-11T05:17:59.879Z,-5.60
2023-02-11T05:20:26.894Z,-5.62
2023-02-11T05:22:53.916Z,-5.70
2023-02-11T05:25:20.950Z,-5.78
2023-02-11T05:27:47.991Z,-5.95
2023-02-11T05:30:15.060Z,-6.07
2023-02-11T05:32:42.203Z,-5.97
2023-02-11T05:35:09.780Z,-5.93
2023-02-11T05:37:36.839Z,-5.98
2023-02-11T05:40:04.360Z,-5.90
2023-02-11T05:42:31.331Z,-5.95
2023-02-11T05:44:58.469Z,-5.94
2023-02-11T05:47:25.661Z,-6.07
2023-02-11T05:49:53.828Z,-6.03
2023-02-11T05:52:22.227Z,-5.93
2023-02-11T05:54:49.256Z,-5.91
2023-02-11T05:57:17.427Z,-5.74
2023-02-11T05:59:44.504Z,-5.76
2023-02-11T06:02:11.700Z,-5.70
2023-02-11T06:04:39.009Z,-5.78
2023-02-11T06:07:06.038Z,-5.72
2023-02-11T06:09:33.110Z,-5.60
2023-02-11T06:12:00.130Z,-5.56
2023-02-11T06:14:27.240Z,-5.52
2023-02-11T06:16:54.359Z,-5.60
2023-02-11T06:19:21.344Z,-5.67
2023-02-11T06:21:48.426Z,-5.79
2023-02-11T06:24:17.405Z,-5.82
2023-02-11T06:26:46.410Z,-5.79
2023-02-11T06:29:14.178Z,-5.76
2023-02-11T06:31:41.562Z,-5.51
2023-02-11T06:34:10.616Z,-5.72
2023-02-11T06:36:39.780Z,-5.80
2023-02-11T06:39:07.928Z,-5.64
2023-02-11T06:41:35.036Z,-5.67
2023-02-11T06:44:02.142Z,-5.72
2023-02-11T06:46:29.132Z,-5.50
2023-02-11T06:48:56.246Z,-5.38
2023-02-11T06:51:23.712Z,-5.31
2023-02-11T06:53:50.707Z,-5.24
2023-02-11T06:56:20.335Z,-5.09
2023-02-11T06:58:48.009Z,-4.79
2023-02-11T07:01:16.647Z,-4.91
2023-02-11T07:03:45.346Z,-4.76
2023-02-11T07:06:15.131Z,-4.97
2023-02-11T07:08:43.307Z,-5.05
2023-02-11T07:11:19.846Z,-4.76
2023-02-11T07:13:48.045Z,-4.41
2023-02-11T07:16:17.232Z,-4.15
2023-02-11T07:18:45.894Z,-4.14
2023-02-11T07:21:14.718Z,-4.08
2023-02-11T07:23:42.374Z,-4.14
2023-02-11T07:26:13.013Z,-3.96
2023-02-11T07:28:41.538Z,-3.91
2023-02-11T07:31:10.356Z,-3.71
2023-02-11T07:33:38.384Z,-3.56
2023-02-11T07:36:07.671Z,-3.41
2023-02-11T07:38:35.772Z,-3.09
2023-02-11T07:41:05.752Z,-3.03
2023-02-11T07:43:33.577Z,-2.80
2023-02-11T07:46:04.829Z,-2.61
2023-02-11T07:48:32.263Z,-2.11
2023-02-11T07:51:24.526Z,-1.75
2023-02-11T07:53:52.333Z,-1.77
2023-02-11T07:56:21.077Z,-1.76
2023-02-11T07:58:48.434Z,-1.52
2023-02-11T08:01:27.334Z,-1.43
2023-02-11T08:03:56.208Z,-1.06
2023-02-11T08:06:26.153Z,-1.19
2023-02-11T08:08:53.763Z,-1.41
2023-02-11T08:11:28.588Z,-0.98
2023-02-11T08:13:57.016Z,-1.02
2023-02-11T08:16:28.320Z,-0.88
2023-02-11T08:19:00.870Z,-0.84
2023-02-11T08:21:28.814Z,-0.73
2023-02-11T08:23:56.775Z,-0.30
2023-02-11T08:26:29.400Z,-0.78
2023-02-11T08:29:01.350Z,-0.92
2023-02-11T08:31:37.768Z,-0.69
2023-02-11T08:34:05.451Z,-0.39
2023-02-11T08:36:34.823Z,-0.20
2023-02-11T08:39:17.960Z,-0.24
2023-02-11T08:41:49.111Z,-0.12
2023-02-11T08:44:17.225Z,-0.07
2023-02-11T08:46:44.185Z,-0.02
2023-02-11T08:49:11.947Z,0.46
2023-02-11T08:51:38.912Z,0.75
2023-02-11T08:54:09.861Z,0.90
2023-02-11T08:56:38.918Z,1.13
2023-02-11T08:59:07.276Z,1.17
2023-02-11T09:01:35.168Z,1.23
2023-02-11T09:04:02.476Z,1.05
2023-02-11T09:06:30.210Z,1.04
2023-02-11T09:08:58.205Z,0.97
2023-02-11T09:11:29.909Z,1.24
2023-02-11T09:13:57.632Z,1.46
2023-02-11T09:16:28.051Z,1.57
2023-02-11T09:18:58.067Z,1.76
2023-02-11T09:21:25.145Z,2.04
2023-02-11T09:23:52.970Z,2.01
2023-02-11T09:26:23.243Z,2.29
2023-02-11T09:28:51.565Z,2.33
2023-02-11T09:31:21.759Z,2.18
2023-02-11T09:33:51.330Z,2.12
2023-02-11T09:36:21.946Z,1.83
2023-02-11T09:38:49.760Z,1.95
2023-02-11T09:41:54.952Z,2.12
2023-02-11T09:44:28.563Z,2.13
2023-02-11T09:47:02.517Z,2.11
2023-02-11T09:49:44.522Z,2.23
2023-02-11T09:52:38.458Z,2.17
2023-02-11T09:55:17.188Z,2.59
2023-02-11T09:57:44.877Z,2.30
2023-02-11T10:00:21.555Z,2.28
2023-02-11T10:03:14.454Z,2.39
2023-02-11T10:05:44.712Z,2.62
2023-02-11T10:08:29.833Z,3.05
2023-02-11T10:11:31.266Z,3.37
2023-02-11T10:14:25.646Z,3.75
2023-02-11T10:17:10.845Z,3.77
2023-02-11T10:20:07.077Z,4.24
2023-02-11T10:22:45.165Z,4.57
2023-02-11T10:25:21.945Z,5.11
2023-02-11T10:27:50.875Z,5.40
2023-02-11T10:30:27.063Z,5.50
2023-02-11T10:33:00.991Z,5.11
2023-02-11T10:35:28.418Z,4.77
2023-02-11T10:37:56.385Z,4.98
2023-02-11T10:40:27.582Z,5.42
2023-02-11T10:42:59.494Z,5.49
2023-02-11T10:45:38.991Z,5.55
2023-02-11T10:48:27.341Z,5.17
2023-02-11T10:51:14.708Z,5.32
2023-02-11T10:53:42.453Z,5.50
2023-02-11T10:56:14.659Z,5.83
2023-02-11T10:58:54.643Z,6.08
2023-02-11T11:01:24.742Z,5.83
2023-02-11T11:03:53.264Z,6.08
2023-02-11T11:06:34.145Z,6.34
2023-02-11T11:09:02.263Z,6.81
2023-02-11T11:11:29.513Z,6.72
2023-02-11T11:14:00.438Z,6.62
2023-02-11T11:16:38.396Z,6.91
2023-02-11T11:19:08.411Z,7.16
2023-02-11T11:21:42.431Z,7.25
2023-02-11T11:24:34.709Z,7.68
2023-02-11T11:27:04.630Z,7.47
2023-02-11T11:29:43.339Z,7.48
2023-02-11T11:32:47.331Z,7.63
2023-02-11T11:35:35.291Z,8.25
2023-02-11T11:38:05.256Z,8.43
2023-02-11T11:40:36.611Z,8.26
2023-02-11T11:43:05.290Z,8.10
2023-02-11T11:45:32.552Z,8.31
2023-02-11T11:48:28.740Z,8.62
2023-02-11T11:51:02.233Z,8.69
2023-02-11T11:53:44.185Z,9.13
2023-02-11T11:56:21.978Z,9.62
2023-02-11T11:58:51.016Z,10.10
2023-02-11T12:01:56.172Z,10.22
2023-02-11T12:04:37.955Z,10.07
2023-02-11T12:07:25.885Z,10.47
2023-02-11T12:09:55.887Z,10.62
2023-02-11T12:12:40.732Z,10.91
2023-02-11T12:15:55.159Z,11.14
2023-02-11T12:18:38.952Z,11.34
2023-02-11T12:21:08.991Z,11.75
2023-02-11T12:23:51.717Z,11.91
2023-02-11T12:26:23.564Z,12.15
2023-02-11T12:29:17.304Z,12.41
2023-02-11T12:32:05.640Z,12.31
2023-02-11T12:35:05.182Z,12.42
2023-02-11T12:38:08.486Z,12.68
2023-02-11T12:40:52.616Z,12.68
2023-02-11T12:43:27.911Z,13.07
2023-02-11T12:46:24.968Z,13.62
2023-02-11T12:49:07.139Z,13.77
2023-02-11T12:51:49.902Z,13.66
2023-02-11T12:54:41.611Z,13.33
2023-02-11T12:57:22.259Z,13.10
2023-02-11T13:00:19.354Z,13.48
2023-02-11T13:03:10.375Z,13.73
2023-02-11T13:05:51.562Z,14.05
2023-02-11T13:08:36.197Z,14.18
2023-02-11T13:11:14.344Z,13.96
2023-02-11T13:14:22.385Z,14.32
2023-02-11T13:16:51.223Z,14.92
2023-02-11T13:19:18.280Z,14.99
2023-02-11T13:22:30.116Z,15.07
2023-02-11T13:25:01.301Z,15.26
2023-02-11T13:27:30.838Z,15.19
2023-02-11T13:30:30.404Z,15.77
2023-02-11T13:32:57.412Z,16.08
2023-02-11T13:35:57.966Z,16.19
2023-02-11T13:38:27.785Z,16.20
2023-02-11T13:41:13.746Z,15.86
2023-02-11T13:43:41.118Z,15.73
2023-02-11T13:46:11.748Z,16.20
2023-02-11T13:48:46.396Z,16.52
2023-02-11T13:51:16.766Z,16.42
2023-02-11T13:53:58.079Z,16.77
2023-02-11T13:56:40.084Z,16.60
2023-02-11T13:59:30.874Z,16.85
2023-02-11T14:02:40.300Z,16.66
2023-02-11T14:05:25.797Z,16.32
2023-02-11T14:08:42.272Z,16.42
2023-02-11T14:11:25.328Z,16.51
2023-02-11T14:13:52.364Z,16.78
2023-02-11T14:16:36.982Z,16.59
2023-02-11T14:19:06.540Z,17.32
2023-02-11T14:21:37.813Z,17.01
2023-02-11T14:24:05.156Z,16.99
2023-02-11T14:26:45.538Z,16.91
2023-02-11T14:29:14.299Z,17.08
2023-02-11T14:31:49.506Z,16.94
2023-02-11T14:34:16.545Z,16.79
2023-02-11T14:37:20.095Z,16.69
2023-02-11T14:39:55.934Z,16.84
2023-02-11T14:42:27.108Z,16.85
2023-02-11T14:44:59.015Z,17.00
2023-02-11T14:47:52.724Z,16.90
2023-02-11T14:50:25.741Z,17.08
2023-02-11T14:52:54.956Z,17.06
2023-02-11T14:55:43.416Z,16.45
2023-02-11T14:58:19.577Z,16.61
2023-02-11T15:01:01.731Z,15.62
2023-02-11T15:03:35.870Z,15.58
2023-02-11T15:06:05.517Z,15.64
2023-02-11T15:08:36.681Z,15.86
2023-02-11T15:11:10.489Z,15.87
2023-02-11T15:13:38.557Z,15.90
2023-02-11T15:16:10.189Z,15.54
2023-02-11T15:18:44.959Z,15.26
2023-02-11T15:21:12.128Z,14.21
2023-02-11T15:23:40.863Z,13.19
2023-02-11T15:26:18.181Z,13.34
2023-02-11T15:28:52.305Z,13.38
2023-02-11T15:31:23.541Z,13.21
2023-02-11T15:33:52.297Z,13.17
2023-02-11T15:36:28.057Z,13.20
2023-02-11T15:39:29.543Z,11.95
2023-02-11T15:41:56.686Z,11.11
2023-02-11T15:44:29.304Z,10.78
2023-02-11T15:46:56.658Z,10.63
2023-02-11T15:49:25.297Z,10.74
2023-02-11T15:51:55.194Z,9.83
2023-02-11T15:54:27.090Z,9.57
2023-02-11T15:57:05.855Z,9.49
2023-02-11T15:59:39.457Z,9.20
2023-02-11T16:02:21.236Z,8.57
2023-02-11T16:05:05.166Z,7.80
2023-02-11T16:07:47.549Z,7.23
2023-02-11T16:10:21.366Z,6.94
2023-02-11T16:12:55.776Z,6.85
2023-02-11T16:15:31.130Z,6.87
2023-02-11T16:17:59.440Z,6.43
2023-02-11T16:20:27.262Z,6.44
2023-02-11T16:22:56.002Z,6.38
2023-02-11T16:25:24.570Z,6.25
2023-02-11T16:27:54.182Z,6.06
2023-02-11T16:30:35.846Z,6.00
2023-02-11T16:33:05.894Z,5.75
2023-02-11T16:35:34.090Z,5.55
2023-02-11T16:38:01.275Z,5.45
2023-02-11T16:40:28.261Z,5.28
2023-02-11T16:42:56.122Z,5.17
2023-02-11T16:45:23.216Z,4.76
2023-02-11T16:47:50.378Z,4.60
2023-02-11T16:50:25.119Z,4.62
2023-02-11T16:52:52.799Z,4.46
2023-02-11T16:55:21.969Z,4.32
2023-02-11T16:57:51.907Z,4.23
2023-02-11T17:00:19.374Z,4.16
2023-02-11T17:02:46.629Z,4.03
2023-02-11T17:05:23.297Z,3.92
2023-02-11T17:07:50.359Z,3.78
2023-02-11T17:10:25.761Z,3.69
2023-02-11T17:12:53.618Z,3.57
2023-02-11T17:15:20.576Z,3.38
2023-02-11T17:17:48.333Z,3.04
2023-02-11T17:20:15.907Z,2.97
2023-02-11T17:22:42.973Z,2.68
2023-02-11T17:25:10.775Z,2.67
2023-02-11T17:27:37.845Z,2.48
2023-02-11T17:30:05.834Z,2.47
2023-02-11T17:32:32.907Z,2.26
2023-02-11T17:35:00.109Z,2.33
2023-02-11T17:37:27.366Z,2.07
2023-02-11T17:39:54.444Z,2.13
2023-02-11T17:42:21.440Z,2.21
2023-02-11T17:44:48.555Z,2.04
2023-02-11T17:47:15.673Z,2.00
2023-02-11T17:49:42.780Z,1.95
2023-02-11T17:52:10.088Z,1.79
2023-02-11T17:54:38.388Z,1.77
2023-02-11T17:57:05.565Z,1.60
2023-02-11T17:59:35.659Z,1.45
2023-02-11T18:02:04.161Z,1.33
2023-02-11T18:04:32.253Z,1.24
2023-02-11T18:06:59.333Z,1.18
2023-02-11T18:09:26.937Z,1.23
2023-02-11T18:11:54.043Z,1.31
2023-02-11T18:14:22.334Z,1.18
2023-02-11T18:16:53.183Z,1.32
2023-02-11T18:19:21.076Z,1.17
2023-02-11T18:21:50.637Z,1.08
2023-02-11T18:24:18.444Z,0.89
2023-02-11T18:26:45.464Z,0.95
2023-02-11T18:29:12.680Z,0.76
2023-02-11T18:31:39.856Z,0.75
2023-02-11T18:34:10.791Z,0.70
2023-02-11T18:36:37.870Z,0.88
2023-02-11T18:39:06.006Z,0.50
2023-02-11T18:41:33.403Z,0.34
2023-02-11T18:44:03.401Z,0.29
2023-02-11T18:46:31.501Z,0.23
2023-02-11T18:48:58.702Z,0.10
2023-02-11T18:51:26.164Z,0.07
2023-02-11T18:53:54.008Z,0.00
2023-02-11T18:56:23.113Z,0.01
2023-02-11T18:58:51.560Z,0.03
2023-02-11T19:01:24.710Z,0.26
2023-02-11T19:03:52.266Z,0.34
2023-02-11T19:06:38.353Z,0.35
2023-02-11T19:09:12.389Z,0.34
2023-02-11T19:11:54.610Z,0.35
2023-02-11T19:14:27.784Z,0.34
2023-02-11T19:16:57.523Z,0.00
2023-02-11T19:19:28.183Z,-0.01
2023-02-11T19:21:57.076Z,-0.13
2023-02-11T19:24:25.019Z,-0.34
2023-02-11T19:26:53.890Z,-0.38
2023-02-11T19:29:21.131Z,-0.35
2023-02-11T19:31:48.320Z,-0.13
2023-02-11T19:34:17.022Z,-0.13
2023-02-11T19:36:44.277Z,-0.10
2023-02-11T19:39:11.873Z,-0.05
2023-02-11T19:41:39.372Z,-0.10
2023-02-11T19:44:08.008Z,-0.32
2023-02-11T19:46:37.722Z,-0.34
2023-02-11T19:49:05.876Z,-0.43
2023-02-11T19:51:33.976Z,-0.44
2023-02-11T19:54:01.336Z,-0.44
2023-02-11T19:56:29.508Z,-0.64
2023-02-11T19:58:56.916Z,-0.68
2023-02-11T20:01:26.223Z,-0.72
2023-02-11T20:03:55.625Z,-0.81
2023-02-11T20:06:25.657Z,-0.77
2023-02-11T20:08:58.624Z,-0.70
2023-02-11T20:11:28.359Z,-0.60
2023-02-11T20:13:56.795Z,-0.51
2023-02-11T20:16:40.713Z,-0.39
2023-02-11T20:19:19.732Z,-0.46
2023-02-11T20:21:48.579Z,-0.32
2023-02-11T20:24:18.070Z,-0.46
2023-02-11T20:26:47.078Z,-0.48
2023-02-11T20:29:15.680Z,-0.84
2023-02-11T20:31:43.190Z,-0.80
2023-02-11T20:34:11.506Z,-0.96
2023-02-11T20:36:41.086Z,-0.84
2023-02-11T20:39:11.555Z,-0.83
2023-02-11T20:41:41.443Z,-0.81
2023-02-11T20:44:11.197Z,-1.19
2023-02-11T20:46:42.297Z,-1.39
2023-02-11T20:49:19.024Z,-1.25
2023-02-11T20:51:47.037Z,-1.56
2023-02-11T20:54:19.447Z,-1.64
2023-02-11T20:56:48.217Z,-1.62
2023-02-11T20:59:17.009Z,-1.63
2023-02-11T21:01:49.640Z,-1.58
2023-02-11T21:04:20.429Z,-1.46
2023-02-11T21:06:53.382Z,-1.39
2023-02-11T21:09:26.546Z,-1.48
2023-02-11T21:11:55.428Z,-1.60
2023-02-11T21:14:24.181Z,-1.68
2023-02-11T21:16:52.134Z,-1.54
2023-02-11T21:19:20.387Z,-1.39
2023-02-11T21:21:48.052Z,-1.29
2023-02-11T21:24:16.006Z,-1.33
2023-02-11T21:26:43.377Z,-1.35
2023-02-11T21:29:11.877Z,-1.26
2023-02-11T21:31:39.137Z,-1.30
2023-02-11T21:34:07.531Z,-1.35
2023-02-11T21:36:34.866Z,-1.48
2023-02-11T21:39:04.109Z,-1.52
2023-02-11T21:41:31.603Z,-1.73
2023-02-11T21:43:58.890Z,-1.62
2023-02-11T21:46:26.342Z,-1.63
2023-02-11T21:48:53.689Z,-1.99
2023-02-11T21:51:23.348Z,-2.13
2023-02-11T21:53:59.385Z,-2.16
2023-02-11T21:56:31.584Z,-2.05
2023-02-11T21:58:59.926Z,-2.05
2023-02-11T22:01:30.940Z,-2.15
2023-02-11T22:03:59.449Z,-2.13
2023-02-11T22:06:33.282Z,-2.13
2023-02-11T22:09:08.313Z,-2.19
2023-02-11T22:11:36.375Z,-2.24
2023-02-11T22:14:03.770Z,-2.26
2023-02-11T22:16:31.352Z,-2.25
2023-02-11T22:18:59.439Z,-2.21
2023-02-11T22:21:27.064Z,-2.16
2023-02-11T22:23:55.575Z,-2.17
2023-02-11T22:26:24.782Z,-2.27
2023-02-11T22:28:52.331Z,-2.33
2023-02-11T22:31:28.630Z,-2.24
2023-02-11T22:33:56.919Z,-2.25
2023-02-11T22:36:32.445Z,-2.42
2023-02-11T22:39:06.012Z,-2.34
2023-02-11T22:41:33.828Z,-2.28
2023-02-11T22:44:00.972Z,-2.08
2023-02-11T22:46:28.096Z,-2.11
2023-02-11T22:48:55.260Z,-2.31
2023-02-11T22:51:24.870Z,-2.25
2023-02-11T22:53:59.963Z,-2.36
2023-02-11T22:56:28.371Z,-2.38
2023-02-11T22:59:00.238Z,-2.20
2023-02-11T23:01:28.562Z,-2.51
2023-02-11T23:03:56.296Z,-2.42
2023-02-11T23:06:28.800Z,-2.36
2023-02-11T23:08:56.132Z,-2.23
2023-02-11T23:11:26.194Z,-2.11
2023-02-11T23:13:53.958Z,-2.16
2023-02-11T23:16:24.429Z,-2.07
2023-02-11T23:18:52.233Z,-2.35
2023-02-11T23:21:25.072Z,-2.44
2023-02-11T23:24:04.194Z,-2.43
2023-02-11T23:26:31.266Z,-2.45
2023-02-11T23:28:59.838Z,-2.35
2023-02-11T23:31:30.508Z,-2.38
2023-02-11T23:33:57.724Z,-2.53
2023-02-11T23:36:24.752Z,-2.44
2023-02-11T23:38:54.505Z,-2.34
2023-02-11T23:41:22.528Z,-2.41
2023-02-11T23:43:57.846Z,-2.53
2023-02-11T23:46:26.921Z,-2.46
2023-02-11T23:48:54.309Z,-2.55
2023-02-11T23:51:21.927Z,-2.45
2023-02-11T23:53:51.668Z,-2.42
2023-02-11T23:56:21.597Z,-2.51
2023-02-11T23:58:50.235Z,-2.46
